South Lynnfield, Massachusetts
Current Conditions -  °F | °C
As of 1:51 AM on Wednesday 28 Jan 2015 (Local Time) from KBVY Reporting Station
Light Snow Light Snow  
Wind Chill: -2°   Ceiling: 3200
Heat Index: 12°   Visibility: 3mi
Dew Point:   Wind: 12mph
Humidity: 79%   Direction: 320°NW
Pressure: 29.68"   Gusts: 21mph
Location:  42.5359°N, 71.0388°W
Report Text: KBVY 280651Z AUTO 32010G18KT 3SM -SN OVC032 M11/M14 A2968 RMK AO2 P0000 $
Loading
Personal Weather Stations






























Interactive Weather Map New forecast layout! Learn more

10-Day Weather Forecast

Advertisements
Track Severe Weather on mobile